createdAt,value
2023-02-09T00:03:41.423Z,102181.09
2023-02-09T00:08:43.089Z,102183.03
2023-02-09T00:13:44.519Z,102177.75
2023-02-09T00:18:45.858Z,102153.19
2023-02-09T00:23:47.182Z,102161.22
2023-02-09T00:28:48.552Z,102157.75
2023-02-09T00:33:49.906Z,102155.41
2023-02-09T00:38:51.248Z,102145.88
2023-02-09T00:43:52.572Z,102133.97
2023-02-09T00:48:53.968Z,102138.50
2023-02-09T00:53:55.507Z,102142.19
2023-02-09T00:58:57.107Z,102148.53
2023-02-09T01:03:58.549Z,102142.63
2023-02-09T01:09:00.539Z,102126.59
2023-02-09T01:14:04.229Z,102120.47
2023-02-09T01:19:05.628Z,102133.31
2023-02-09T01:24:07.814Z,102124.84
2023-02-09T01:29:12.902Z,102117.66
2023-02-09T01:34:17.451Z,102121.75
2023-02-09T01:39:18.812Z,102113.53
2023-02-09T01:44:20.080Z,102103.84
2023-02-09T01:49:27.665Z,102103.28
2023-02-09T01:54:34.514Z,102108.91
2023-02-09T01:59:40.018Z,102097.59
2023-02-09T02:04:44.333Z,102096.69
2023-02-09T02:09:46.216Z,102090.44
2023-02-09T02:14:47.644Z,102075.50
2023-02-09T02:20:05.530Z,102061.41
2023-02-09T02:25:32.896Z,102060.66
2023-02-09T02:30:38.742Z,102062.53
2023-02-09T02:35:58.623Z,102063.00
2023-02-09T02:41:18.803Z,102053.31
2023-02-09T02:46:30.711Z,102048.09
2023-02-09T02:51:37.910Z,102044.84
2023-02-09T02:56:43.059Z,102057.22
2023-02-09T03:01:55.226Z,102052.88
2023-02-09T03:06:56.586Z,102053.94
2023-02-09T03:12:20.544Z,102055.88
2023-02-09T03:17:43.391Z,102052.66
2023-02-09T03:22:56.274Z,102060.84
2023-02-09T03:28:12.181Z,102060.91
2023-02-09T03:33:22.278Z,102060.03
2023-02-09T03:38:24.842Z,102068.34
2023-02-09T03:43:46.333Z,102071.06
2023-02-09T03:48:47.876Z,102068.44
2023-02-09T03:53:49.308Z,102072.19
2023-02-09T03:58:51.191Z,102058.69
2023-02-09T04:03:52.551Z,102060.53
2023-02-09T04:08:53.937Z,102057.00
2023-02-09T04:13:55.391Z,102051.81
2023-02-09T04:18:57.141Z,102045.91
2023-02-09T04:23:58.623Z,102045.00
2023-02-09T04:29:00.048Z,102038.59
2023-02-09T04:34:01.451Z,102055.25
2023-02-09T04:39:03.300Z,102055.44
2023-02-09T04:44:04.670Z,102057.66
2023-02-09T04:49:06.005Z,102047.13
2023-02-09T04:54:07.532Z,102040.09
2023-02-09T04:59:28.320Z,102047.28
2023-02-09T05:04:30.590Z,102050.13
2023-02-09T05:09:32.051Z,102063.66
2023-02-09T05:14:33.476Z,102061.19
2023-02-09T05:19:34.818Z,102061.91
2023-02-09T05:24:36.150Z,102066.25
2023-02-09T05:29:37.485Z,102064.63
2023-02-09T05:34:38.888Z,102059.31
2023-02-09T05:39:40.333Z,102055.56
2023-02-09T05:44:50.122Z,102057.13
2023-02-09T05:49:52.478Z,102054.28
2023-02-09T05:54:53.824Z,102059.47
2023-02-09T05:59:55.258Z,102053.53
2023-02-09T06:04:56.812Z,102059.59
2023-02-09T06:09:58.438Z,102050.00
2023-02-09T06:14:59.865Z,102063.13
2023-02-09T06:20:01.375Z,102072.94
2023-02-09T06:25:03.480Z,102077.56
2023-02-09T06:30:05.613Z,102086.91
2023-02-09T06:35:07.069Z,102071.72
2023-02-09T06:40:08.659Z,102082.25
2023-02-09T06:45:14.923Z,102087.63
2023-02-09T06:50:17.854Z,102081.34
2023-02-09T06:55:19.320Z,102087.22
2023-02-09T07:00:21.791Z,102090.97
2023-02-09T07:05:23.180Z,102089.25
2023-02-09T07:10:24.631Z,102081.91
2023-02-09T07:15:26.087Z,102098.44
2023-02-09T07:20:27.567Z,102098.31
2023-02-09T07:25:28.948Z,102105.47
2023-02-09T07:30:30.379Z,102104.34
2023-02-09T07:35:31.877Z,102100.50
2023-02-09T07:40:33.218Z,102117.88
2023-02-09T07:45:34.550Z,102103.50
2023-02-09T07:50:35.922Z,102109.97
2023-02-09T07:55:39.768Z,102114.88
2023-02-09T08:00:41.081Z,102110.00
2023-02-09T08:05:56.867Z,102111.41
2023-02-09T08:11:00.923Z,102120.34
2023-02-09T08:16:05.502Z,102117.16
2023-02-09T08:21:09.693Z,102119.09
2023-02-09T08:26:13.198Z,102116.78
2023-02-09T08:31:17.409Z,102114.47
2023-02-09T08:36:20.355Z,102105.97
2023-02-09T08:41:21.959Z,102109.72
2023-02-09T08:46:23.451Z,102110.69
2023-02-09T08:51:24.959Z,102111.63
2023-02-09T08:56:26.327Z,102117.91
2023-02-09T09:01:27.718Z,102110.22
2023-02-09T09:06:29.244Z,102108.13
2023-02-09T09:11:30.754Z,102098.69
2023-02-09T09:16:32.191Z,102092.69
2023-02-09T09:21:33.926Z,102083.41
2023-02-09T09:26:35.671Z,102075.59
2023-02-09T09:31:37.974Z,102068.84
2023-02-09T09:36:39.633Z,102071.63
2023-02-09T09:41:41.095Z,102072.75
2023-02-09T09:46:47.494Z,102081.84
2023-02-09T09:51:55.680Z,102076.78
2023-02-09T09:56:57.391Z,102076.75
2023-02-09T10:02:03.497Z,102080.06
2023-02-09T10:07:16.398Z,102082.72
2023-02-09T10:12:30.033Z,102090.69
2023-02-09T10:17:31.398Z,102098.47
2023-02-09T10:22:32.753Z,102093.78
2023-02-09T10:27:34.066Z,102093.16
2023-02-09T10:32:43.295Z,102079.94
2023-02-09T10:37:44.669Z,102083.41
2023-02-09T10:43:00.799Z,102082.56
2023-02-09T10:48:18.876Z,102063.91
2023-02-09T10:53:25.020Z,102067.84
2023-02-09T10:58:33.468Z,102066.50
2023-02-09T11:03:36.257Z,102070.75
2023-02-09T11:08:43.323Z,102067.66
2023-02-09T11:13:44.708Z,102060.00
2023-02-09T11:18:57.060Z,102056.44
2023-02-09T11:24:07.150Z,102067.50
2023-02-09T11:29:35.025Z,102047.59
2023-02-09T11:35:10.556Z,102043.06
2023-02-09T11:40:33.236Z,102037.72
2023-02-09T11:45:52.168Z,102030.16
2023-02-09T11:51:07.939Z,102032.16
2023-02-09T11:56:13.418Z,102022.94
2023-02-09T12:01:39.774Z,102025.97
2023-02-09T12:06:54.519Z,102025.44
2023-02-09T12:12:10.288Z,102016.19
2023-02-09T12:17:18.823Z,102009.72
2023-02-09T12:22:35.479Z,102014.56
2023-02-09T12:27:38.919Z,102008.44
2023-02-09T12:32:43.892Z,102014.97
2023-02-09T12:38:13.299Z,102008.88
2023-02-09T12:43:27.004Z,102005.81
2023-02-09T12:48:28.471Z,102010.63
2023-02-09T12:53:40.675Z,102010.44
2023-02-09T12:58:45.307Z,102005.25
2023-02-09T13:04:05.669Z,101995.88
2023-02-09T13:09:15.219Z,102006.56
2023-02-09T13:14:18.626Z,102010.97
2023-02-09T13:19:50.697Z,102013.38
2023-02-09T13:25:00.394Z,102005.06
2023-02-09T13:30:01.971Z,102004.22
2023-02-09T13:35:24.283Z,102005.78
2023-02-09T13:40:29.610Z,101990.25
2023-02-09T13:45:31.822Z,101973.16
2023-02-09T13:50:33.400Z,101980.31
2023-02-09T13:55:37.740Z,101991.00
2023-02-09T14:00:48.118Z,101986.16
2023-02-09T14:05:59.634Z,101980.25
2023-02-09T14:11:41.063Z,101980.00
2023-02-09T14:16:53.160Z,101991.13
2023-02-09T14:21:55.372Z,101978.53
2023-02-09T14:27:04.889Z,101970.16
2023-02-09T14:32:35.724Z,101994.81
2023-02-09T14:37:37.156Z,101978.97
2023-02-09T14:42:56.919Z,101982.19
2023-02-09T14:47:58.448Z,101974.63
2023-02-09T14:53:06.758Z,101984.25
2023-02-09T14:58:23.269Z,101977.13
2023-02-09T15:03:25.017Z,101984.59
2023-02-09T15:08:30.270Z,101977.00
2023-02-09T15:13:32.949Z,101986.09
2023-02-09T15:18:36.081Z,101983.50
2023-02-09T15:23:37.450Z,101969.44
2023-02-09T15:28:39.355Z,101975.19
2023-02-09T15:33:40.886Z,101984.38
2023-02-09T15:38:42.336Z,102011.13
2023-02-09T15:44:02.407Z,102016.03
2023-02-09T15:49:05.402Z,102002.22
2023-02-09T15:54:17.900Z,102010.88
2023-02-09T15:59:22.028Z,102003.88
2023-02-09T16:04:23.445Z,101984.81
2023-02-09T16:09:27.680Z,101991.38
2023-02-09T16:14:29.104Z,102024.19
2023-02-09T16:19:30.719Z,102006.66
2023-02-09T16:24:45.016Z,102021.97
2023-02-09T16:29:46.360Z,102029.03
2023-02-09T16:34:48.369Z,102043.50
2023-02-09T16:39:49.796Z,102052.06
2023-02-09T16:44:51.754Z,102039.41
2023-02-09T16:50:02.785Z,102045.03
2023-02-09T16:55:06.201Z,102059.75
2023-02-09T17:00:08.271Z,102061.56
2023-02-09T17:05:37.023Z,102064.00
2023-02-09T17:10:38.377Z,102089.09
2023-02-09T17:15:44.150Z,102084.69
2023-02-09T17:20:50.644Z,102074.94
2023-02-09T17:25:55.052Z,102091.72
2023-02-09T17:31:00.145Z,102094.03
2023-02-09T17:41:31.268Z,102107.00
2023-02-09T17:46:32.633Z,102102.97
2023-02-09T17:51:40.290Z,102097.25
2023-02-09T17:56:42.453Z,102105.75
2023-02-09T18:01:46.456Z,102115.88
2023-02-09T18:06:47.828Z,102127.84
2023-02-09T18:11:55.432Z,102130.00
2023-02-09T18:16:56.998Z,102122.38
2023-02-09T18:22:01.200Z,102120.75
2023-02-09T18:27:02.791Z,102112.25
2023-02-09T18:32:04.509Z,102123.84
2023-02-09T18:37:06.752Z,102141.03
2023-02-09T18:42:12.724Z,102153.81
2023-02-09T18:47:14.214Z,102154.72
2023-02-09T18:52:20.789Z,102161.94
2023-02-09T18:57:22.138Z,102163.88
2023-02-09T19:02:24.203Z,102158.06
2023-02-09T19:07:25.847Z,102169.69
2023-02-09T19:12:28.357Z,102181.25
2023-02-09T19:17:29.909Z,102180.53
2023-02-09T19:22:32.143Z,102178.13
2023-02-09T19:27:33.615Z,102187.28
2023-02-09T19:32:35.027Z,102185.72
2023-02-09T19:37:37.340Z,102187.66
2023-02-09T19:42:38.721Z,102192.44
2023-02-09T19:47:40.131Z,102189.09
2023-02-09T19:52:44.030Z,102201.72
2023-02-09T19:57:45.444Z,102207.44
2023-02-09T20:02:48.088Z,102213.75
2023-02-09T20:07:49.775Z,102221.94
2023-02-09T20:12:51.294Z,102226.69
2023-02-09T20:17:52.616Z,102222.25
2023-02-09T20:22:54.850Z,102228.78
2023-02-09T20:27:56.229Z,102227.38
2023-02-09T20:32:57.576Z,102218.84
2023-02-09T20:37:58.912Z,102224.50
2023-02-09T20:43:18.944Z,102230.19
2023-02-09T20:48:20.288Z,102237.66
2023-02-09T20:53:22.486Z,102240.53
2023-02-09T20:58:24.856Z,102234.63
2023-02-09T21:03:26.200Z,102226.13
2023-02-09T21:08:27.570Z,102231.63
2023-02-09T21:13:28.987Z,102234.63
2023-02-09T21:18:30.328Z,102236.19
2023-02-09T21:23:31.842Z,102242.31
2023-02-09T21:28:33.266Z,102240.34
2023-02-09T21:33:35.485Z,102243.06
2023-02-09T21:38:41.401Z,102230.69
2023-02-09T21:43:43.238Z,102239.56
2023-02-09T21:48:44.804Z,102242.25
2023-02-09T21:53:48.360Z,102231.94
2023-02-09T21:58:49.723Z,102234.66
2023-02-09T22:03:57.119Z,102233.00
2023-02-09T22:09:02.397Z,102235.06
2023-02-09T22:14:04.352Z,102225.53
2023-02-09T22:19:05.751Z,102231.00
2023-02-09T22:24:07.354Z,102240.16
2023-02-09T22:29:10.188Z,102234.97
2023-02-09T22:34:11.625Z,102241.34
2023-02-09T22:39:13.054Z,102250.53
2023-02-09T22:44:16.010Z,102252.38
2023-02-09T22:49:19.682Z,102255.34
2023-02-09T22:54:21.365Z,102256.31
2023-02-09T22:59:22.737Z,102245.13
2023-02-09T23:04:24.168Z,102237.19
2023-02-09T23:09:25.628Z,102246.97
2023-02-09T23:14:27.244Z,102250.63
2023-02-09T23:19:28.636Z,102251.66
2023-02-09T23:24:29.996Z,102250.13
2023-02-09T23:29:31.386Z,102258.16
2023-02-09T23:34:33.488Z,102270.63
2023-02-09T23:39:35.961Z,102270.72
2023-02-09T23:44:37.337Z,102279.56
2023-02-09T23:49:38.719Z,102272.63
2023-02-09T23:54:40.070Z,102284.25
2023-02-09T23:59:42.532Z,102291.81
